Time;durP1;ratioP1;P1;durP2;ratioP2;P2;SDS_P1;SDS_P2;PMS_P1;PMS_P2;Temp;Humidity;BMP_temperature;BMP_pressure;BME280_temperature;BME280_humidity;BME280_pressure;Samples;Min_cycle;Max_cycle;Signal;HPM_P1;HPM_P2
2023/04/22 00:00:12;;;;;;;11.27;6.60;;;;;;;10.83;66.55;100528.75;6075241;28;20033;-72
2023/04/22 00:03:07;;;;;;;12.13;5.85;;;;;;;10.79;67.26;100521.28;6074942;28;20033;-73
2023/04/22 00:06:02;;;;;;;12.80;6.50;;;;;;;10.71;66.95;100522.00;6085526;28;20411;-72
2023/04/22 00:08:58;;;;;;;11.37;6.40;;;;;;;10.87;66.50;100516.84;6057254;28;20032;-74
2023/04/22 00:11:53;;;;;;;14.93;6.50;;;;;;;10.91;66.33;100504.13;6075000;28;20649;-72
2023/04/22 00:14:48;;;;;;;10.47;6.70;;;;;;;10.90;66.36;100502.47;6074544;28;20504;-70
2023/04/22 00:17:44;;;;;;;24.30;6.20;;;;;;;10.83;66.30;100498.75;6073870;28;20038;-73
2023/04/22 00:20:42;;;;;;;14.50;6.15;;;;;;;10.80;66.68;100485.78;6087160;28;20041;-72
2023/04/22 00:23:37;;;;;;;11.18;5.60;;;;;;;10.75;66.73;100473.84;6073611;28;20033;-73
2023/04/22 00:26:33;;;;;;;13.23;6.60;;;;;;;10.63;66.62;100463.59;6074155;28;20044;-72
2023/04/22 00:29:28;;;;;;;16.27;6.53;;;;;;;10.82;66.80;100495.25;6074765;28;20030;-74
2023/04/22 00:32:23;;;;;;;10.87;6.13;;;;;;;10.74;67.12;100497.84;6073878;28;20372;-74
2023/04/22 00:35:18;;;;;;;9.27;5.53;;;;;;;10.69;67.10;100495.66;6074102;28;20079;-72
2023/04/22 00:38:14;;;;;;;12.63;6.47;;;;;;;10.66;67.33;100493.31;6074474;28;20037;-75
2023/04/22 00:41:09;;;;;;;16.57;6.60;;;;;;;10.66;67.67;100493.31;6081649;28;20395;-74
2023/04/22 00:44:08;;;;;;;9.20;6.00;;;;;;;10.70;67.33;100492.03;6073481;28;20386;-74
2023/04/22 00:47:04;;;;;;;10.05;5.68;;;;;;;10.68;67.03;100482.56;6073641;28;20045;-75
2023/04/22 00:49:59;;;;;;;10.47;5.70;;;;;;;10.75;66.40;100473.84;6089605;28;20021;-71
2023/04/22 00:52:54;;;;;;;12.55;5.95;;;;;;;10.90;65.97;100475.94;6074120;28;20287;-75
2023/04/22 00:55:50;;;;;;;12.37;6.13;;;;;;;11.05;65.32;100474.38;6073315;28;20036;-73
2023/04/22 00:58:45;;;;;;;13.00;6.27;;;;;;;11.04;65.67;100451.47;6073972;28;20279;-75
2023/04/22 01:01:41;;;;;;;12.33;6.37;;;;;;;11.10;65.03;100467.63;6073783;28;20296;-73
2023/04/22 01:04:37;;;;;;;12.82;6.28;;;;;;;11.16;64.84;100463.53;6072826;28;20032;-71
2023/04/22 01:07:33;;;;;;;12.32;7.07;;;;;;;11.02;64.96;100442.84;6074452;28;20387;-73
2023/04/22 01:10:28;;;;;;;10.50;6.45;;;;;;;11.20;64.61;100472.81;6073961;28;20034;-73
2023/04/22 01:13:23;;;;;;;14.23;6.28;;;;;;;11.17;63.98;100457.22;6072402;28;20064;-71
2023/04/22 01:16:19;;;;;;;10.20;6.07;;;;;;;11.07;64.72;100452.00;6073166;28;20474;-74
2023/04/22 01:19:14;;;;;;;10.05;6.28;;;;;;;11.05;65.19;100459.31;6078951;28;20509;-73
2023/04/22 01:22:12;;;;;;;11.90;6.25;;;;;;;11.04;65.07;100452.31;6073578;28;20037;-72
2023/04/22 01:25:08;;;;;;;11.57;6.70;;;;;;;10.94;65.09;100442.78;6072353;28;20266;-71
2023/04/22 01:28:04;;;;;;;11.57;6.15;;;;;;;10.95;65.00;100431.22;6067495;28;20483;-74
2023/04/22 01:30:59;;;;;;;10.23;6.55;;;;;;;11.00;65.11;100434.22;6073381;28;20040;-74
2023/04/22 01:33:54;;;;;;;13.73;6.13;;;;;;;11.07;64.45;100422.81;6072744;28;20022;-75
2023/04/22 01:36:50;;;;;;;12.02;6.82;;;;;;;11.19;64.57;100455.25;6074304;28;20060;-72
2023/04/22 01:39:46;;;;;;;11.68;6.80;;;;;;;11.22;64.03;100446.97;6081652;28;20120;-71
2023/04/22 01:42:41;;;;;;;14.20;6.32;;;;;;;11.31;63.43;100443.34;6076730;28;20030;-73
2023/04/22 01:45:37;;;;;;;11.97;6.87;;;;;;;11.28;63.52;100436.53;6072398;28;20057;-73
2023/04/22 01:48:33;;;;;;;12.77;6.50;;;;;;;11.41;63.36;100449.41;6073437;28;20372;-72
2023/04/22 01:51:28;;;;;;;14.80;6.70;;;;;;;11.28;63.26;100430.41;6072746;28;20356;-76
2023/04/22 01:54:24;;;;;;;9.03;6.30;;;;;;;11.37;62.91;100434.78;6072476;28;20037;-74
2023/04/22 01:57:19;;;;;;;10.60;6.57;;;;;;;11.33;62.86;100452.03;6055596;28;20351;-74
2023/04/22 02:00:15;;;;;;;14.48;6.68;;;;;;;11.28;63.51;100427.75;6072790;28;20284;-73
2023/04/22 02:03:10;;;;;;;12.43;6.78;;;;;;;11.31;63.50;100438.06;6072072;28;20037;-72
2023/04/22 02:06:06;;;;;;;12.15;6.50;;;;;;;11.13;63.97;100424.03;6071562;28;20033;-73
2023/04/22 02:09:01;;;;;;;12.57;6.63;;;;;;;11.24;63.68;100432.56;6073049;28;20041;-73
2023/04/22 02:11:57;;;;;;;11.20;7.07;;;;;;;11.22;63.84;100425.75;6072976;28;20033;-73
2023/04/22 02:14:52;;;;;;;11.47;6.13;;;;;;;11.33;63.90;100452.03;6070782;28;20040;-74
2023/04/22 02:17:48;;;;;;;11.33;6.80;;;;;;;11.21;64.04;100434.69;6070979;28;20429;-72
2023/04/22 02:20:43;;;;;;;12.93;6.47;;;;;;;11.17;64.79;100436.00;6072458;28;20061;-75
2023/04/22 02:23:39;;;;;;;15.20;6.68;;;;;;;11.15;64.55;100432.66;6072355;28;20037;-73
2023/04/22 02:26:34;;;;;;;12.38;7.20;;;;;;;11.12;64.62;100422.34;6072450;28;20073;-73
2023/04/22 02:29:31;;;;;;;13.38;7.05;;;;;;;11.19;64.82;100447.28;6072110;28;20041;-75
2023/04/22 02:32:26;;;;;;;12.20;6.97;;;;;;;11.33;64.13;100444.06;6072728;28;20034;-74
2023/04/22 02:35:21;;;;;;;12.43;6.80;;;;;;;11.32;64.16;100445.03;6071406;28;20056;-72
2023/04/22 02:38:17;;;;;;;13.93;7.30;;;;;;;11.37;63.85;100448.06;6072421;28;20045;-74
2023/04/22 02:41:12;;;;;;;11.88;6.63;;;;;;;11.24;63.99;100423.75;6074585;28;20036;-72
2023/04/22 02:44:08;;;;;;;12.07;7.53;;;;;;;11.20;64.82;100425.03;6076252;28;20045;-71
2023/04/22 02:47:03;;;;;;;13.50;7.03;;;;;;;11.25;64.41;100444.00;6076165;28;20383;-75
2023/04/22 02:49:58;;;;;;;13.87;8.07;;;;;;;11.02;65.47;100429.59;6076612;28;20037;-75
2023/04/22 02:52:54;;;;;;;12.27;6.83;;;;;;;10.86;65.67;100416.22;6077050;28;20045;-74
2023/04/22 02:55:51;;;;;;;12.18;7.03;;;;;;;10.88;66.24;100422.19;6083701;28;20029;-73
2023/04/22 02:58:46;;;;;;;13.68;7.20;;;;;;;10.74;66.81;100418.28;6076514;28;20033;-73
2023/04/22 03:01:41;;;;;;;12.20;7.70;;;;;;;10.59;66.97;100404.75;6076675;28;20018;-73
2023/04/22 03:04:37;;;;;;;10.40;6.63;;;;;;;10.59;67.54;100407.41;6075587;28;20352;-72
2023/04/22 03:07:32;;;;;;;15.68;7.20;;;;;;;10.46;68.13;100398.19;6076132;28;20037;-73
2023/04/22 03:10:27;;;;;;;12.33;7.33;;;;;;;10.42;68.21;100399.44;6075961;28;20038;-72
2023/04/22 03:13:23;;;;;;;11.10;6.80;;;;;;;10.43;68.79;100409.91;6075273;28;20029;-75
2023/04/22 03:16:22;;;;;;;15.43;7.20;;;;;;;10.42;68.86;100400.28;6076040;28;20402;-73
2023/04/22 03:19:17;;;;;;;13.23;7.40;;;;;;;10.47;69.24;100408.63;6075635;28;20061;-75
2023/04/22 03:22:12;;;;;;;14.13;7.60;;;;;;;10.38;69.41;100412.16;6076202;28;20048;-73
2023/04/22 03:25:10;;;;;;;12.67;7.73;;;;;;;10.31;69.91;100400.53;6074909;28;20124;-74
2023/04/22 03:28:05;;;;;;;14.20;7.10;;;;;;;10.31;70.08;100411.13;6075672;28;20034;-73
2023/04/22 03:31:00;;;;;;;12.33;7.57;;;;;;;10.16;70.29;100391.44;6076061;28;20038;-73
2023/04/22 03:33:55;;;;;;;12.53;7.17;;;;;;;10.20;70.55;100408.69;6074244;28;20121;-73
2023/04/22 03:36:51;;;;;;;14.03;8.67;;;;;;;10.08;70.67;100388.69;6075926;28;20037;-72
2023/04/22 03:39:46;;;;;;;14.63;7.83;;;;;;;10.11;71.14;100402.44;6075613;28;20033;-73
2023/04/22 03:42:41;;;;;;;12.67;7.30;;;;;;;10.02;71.54;100399.88;6075124;28;20045;-73
2023/04/22 03:45:37;;;;;;;19.40;7.97;;;;;;;9.92;71.91;100392.00;6074501;28;20283;-73
2023/04/22 03:48:34;;;;;;;12.47;7.70;;;;;;;9.87;72.11;100388.13;6074415;28;20030;-73
2023/04/22 03:51:29;;;;;;;12.93;7.13;;;;;;;9.87;72.69;100412.78;6075371;28;20084;-72
2023/04/22 03:54:26;;;;;;;17.13;8.73;;;;;;;9.78;72.93;100389.03;6074914;28;20046;-72
2023/04/22 03:57:22;;;;;;;13.68;8.25;;;;;;;9.72;73.26;100397.56;6075053;28;20034;-73
2023/04/22 04:00:17;;;;;;;14.67;7.60;;;;;;;9.57;73.83;100384.81;6074992;28;20033;-72
2023/04/22 04:03:12;;;;;;;14.27;7.57;;;;;;;9.59;74.28;100404.03;6075129;28;20276;-73
2023/04/22 04:06:08;;;;;;;16.17;8.33;;;;;;;9.49;74.83;100402.41;6074463;28;20041;-73
2023/04/22 04:09:04;;;;;;;13.65;7.75;;;;;;;9.45;75.22;100409.84;6075875;28;20033;-72
2023/04/22 04:12:00;;;;;;;13.18;7.45;;;;;;;9.32;75.77;100397.91;6090789;28;20022;-71
2023/04/22 04:14:55;;;;;;;17.77;8.70;;;;;;;9.35;75.94;100416.13;6087033;28;20532;-73
2023/04/22 04:17:50;;;;;;;14.10;7.37;;;;;;;9.20;76.30;100413.13;6074779;28;20033;-74
2023/04/22 04:20:45;;;;;;;15.20;8.80;;;;;;;9.16;76.92;100416.22;6074710;28;20561;-72
2023/04/22 04:23:41;;;;;;;17.00;8.43;;;;;;;9.03;77.34;100411.22;6074054;28;20160;-72
2023/04/22 04:26:36;;;;;;;15.00;8.03;;;;;;;9.01;78.10;100418.47;6074499;28;20079;-72
2023/04/22 04:29:31;;;;;;;20.05;8.63;;;;;;;8.94;78.58;100412.09;6074808;28;20025;-71
2023/04/22 04:32:27;;;;;;;14.97;8.03;;;;;;;8.98;78.70;100429.34;6075516;28;20045;-73
2023/04/22 04:35:22;;;;;;;18.53;8.47;;;;;;;8.91;78.90;100420.31;6073947;28;20045;-73
2023/04/22 04:38:18;;;;;;;14.20;8.25;;;;;;;8.87;79.13;100421.56;6074057;28;20479;-73
2023/04/22 04:41:14;;;;;;;15.68;8.05;;;;;;;8.83;79.33;100417.56;6073821;28;20438;-74
2023/04/22 04:44:10;;;;;;;17.10;9.20;;;;;;;8.92;79.27;100421.97;6073297;28;20494;-73
2023/04/22 04:47:05;;;;;;;16.90;8.55;;;;;;;8.91;79.64;100413.19;6073969;28;20056;-73
2023/04/22 04:50:03;;;;;;;16.27;7.57;;;;;;;8.87;79.39;100405.69;6074239;28;20033;-74
2023/04/22 04:52:58;;;;;;;16.42;8.73;;;;;;;8.90;79.42;100397.47;6074097;28;20090;-71
2023/04/22 04:55:53;;;;;;;17.97;9.37;;;;;;;9.00;79.78;100414.16;6073309;28;20041;-74
2023/04/22 04:58:49;;;;;;;20.23;9.53;;;;;;;9.00;79.47;100403.56;6074170;28;20392;-75
2023/04/22 05:01:44;;;;;;;17.15;8.05;;;;;;;9.05;79.47;100411.91;6073578;28;20032;-73
2023/04/22 05:04:40;;;;;;;15.15;8.45;;;;;;;9.04;79.12;100402.31;6072917;28;20025;-72
2023/04/22 05:07:35;;;;;;;15.43;7.93;;;;;;;9.21;78.94;100409.50;6072810;28;20112;-74
2023/04/22 05:10:30;;;;;;;15.27;7.90;;;;;;;9.24;78.39;100387.22;6073733;28;20363;-71
2023/04/22 05:13:27;;;;;;;14.07;7.72;;;;;;;9.37;77.94;100387.72;6055608;28;20046;-73
2023/04/22 05:16:22;;;;;;;12.27;7.03;;;;;;;9.55;77.23;100401.84;6073509;28;20030;-72
2023/04/22 05:19:17;;;;;;;16.80;8.37;;;;;;;9.56;76.89;100404.34;6055727;28;20033;-76
2023/04/22 05:22:13;;;;;;;14.47;8.03;;;;;;;9.70;76.83;100378.34;6073369;28;20502;-70
2023/04/22 05:25:08;;;;;;;14.43;7.05;;;;;;;10.23;74.25;100391.66;6072704;28;20041;-72
2023/04/22 05:28:04;;;;;;;15.07;7.40;;;;;;;10.47;72.35;100390.06;6073202;28;20041;-70
2023/04/22 05:30:59;;;;;;;15.00;7.70;;;;;;;10.83;71.40;100409.41;6073257;28;20044;-73
2023/04/22 05:33:54;;;;;;;13.67;7.40;;;;;;;10.69;72.29;100394.03;6072606;28;20037;-73
2023/04/22 05:36:50;;;;;;;15.23;7.47;;;;;;;10.81;71.17;100391.97;6073045;28;20048;-72
2023/04/22 05:39:45;;;;;;;13.20;7.20;;;;;;;10.83;71.10;100395.28;6072772;28;20029;-72
2023/04/22 05:42:40;;;;;;;13.73;7.80;;;;;;;11.25;70.11;100409.50;6072333;28;20359;-72
2023/04/22 05:45:36;;;;;;;14.23;7.67;;;;;;;11.27;69.98;100397.75;6072001;28;20033;-71
2023/04/22 05:48:31;;;;;;;13.35;7.40;;;;;;;11.69;68.29;100410.22;6073237;28;20032;-73
2023/04/22 05:51:26;;;;;;;12.57;6.40;;;;;;;11.78;68.02;100409.25;6072411;28;20087;-73
2023/04/22 05:54:22;;;;;;;16.93;7.80;;;;;;;11.72;67.64;100410.72;6072544;28;20490;-71
2023/04/22 05:57:17;;;;;;;22.60;7.33;;;;;;;11.88;66.95;100410.78;6072516;28;20048;-71
2023/04/22 06:00:13;;;;;;;12.87;8.10;;;;;;;11.62;67.53;100382.59;6074659;28;20040;-73
2023/04/22 06:03:08;;;;;;;11.90;7.28;;;;;;;11.65;67.84;100393.75;6073062;28;20112;-72
2023/04/22 06:06:04;;;;;;;11.70;6.97;;;;;;;11.69;68.40;100404.91;6072462;28;20064;-74
2023/04/22 06:08:59;;;;;;;12.80;7.28;;;;;;;11.76;67.38;100390.00;6072912;28;20026;-70
2023/04/22 06:11:55;;;;;;;12.93;7.30;;;;;;;11.89;67.81;100391.19;6073677;28;20041;-72
2023/04/22 06:14:50;;;;;;;13.73;7.18;;;;;;;12.00;66.92;100398.03;6072358;28;20041;-72
2023/04/22 06:17:47;;;;;;;13.23;5.83;;;;;;;12.16;67.44;100400.72;6077855;28;20438;-71
2023/04/22 06:20:42;;;;;;;13.48;7.28;;;;;;;12.07;66.80;100392.88;6077240;28;20033;-72
2023/04/22 06:23:37;;;;;;;13.90;7.87;;;;;;;12.21;66.37;100394.91;6076905;28;20410;-74
2023/04/22 06:26:33;;;;;;;13.80;7.83;;;;;;;12.34;66.47;100396.06;6076916;28;20033;-73
2023/04/22 06:29:28;;;;;;;12.80;6.40;;;;;;;12.41;66.13;100390.94;6076877;28;20037;-71
2023/04/22 06:32:23;;;;;;;12.60;6.60;;;;;;;12.93;65.64;100405.56;6077229;28;20391;-73
2023/04/22 06:35:20;;;;;;;14.57;7.17;;;;;;;12.60;65.18;100393.28;6076596;28;20544;-74
2023/04/22 06:38:15;;;;;;;12.50;6.70;;;;;;;13.18;64.58;100392.22;6087601;28;20030;-77
2023/04/22 06:41:10;;;;;;;13.93;7.37;;;;;;;13.23;63.41;100395.19;6095776;28;20040;-74
2023/04/22 06:44:05;;;;;;;12.40;6.83;;;;;;;13.28;63.67;100390.19;6095417;28;20047;-72
2023/04/22 06:47:01;;;;;;;13.73;6.70;;;;;;;13.29;63.86;100387.34;6080283;28;20040;-74
2023/04/22 06:49:56;;;;;;;17.73;6.00;;;;;;;14.04;62.19;100388.50;6076708;28;20029;-70
2023/04/22 06:52:53;;;;;;;12.60;7.03;;;;;;;13.97;61.92;100387.53;6076281;28;20746;-74
2023/04/22 06:55:49;;;;;;;12.25;6.30;;;;;;;14.12;61.67;100380.44;6076068;28;20544;-73
2023/04/22 06:58:44;;;;;;;12.52;6.65;;;;;;;13.91;61.95;100379.41;6071902;28;20037;-73
2023/04/22 07:01:39;;;;;;;12.87;7.30;;;;;;;13.81;62.21;100376.97;6076763;28;20478;-73
2023/04/22 07:04:35;;;;;;;12.75;5.97;;;;;;;14.24;61.56;100389.69;6075182;28;20040;-72
2023/04/22 07:07:30;;;;;;;10.88;6.75;;;;;;;14.36;60.53;100370.63;6076265;28;20033;-74
2023/04/22 07:10:25;;;;;;;13.07;5.70;;;;;;;14.40;60.45;100370.13;6075791;28;20433;-74
2023/04/22 07:13:21;;;;;;;11.67;6.37;;;;;;;14.61;60.12;100385.44;6075547;28;20348;-73
2023/04/22 07:16:16;;;;;;;10.90;5.77;;;;;;;14.72;60.02;100385.00;6074375;28;20037;-72
2023/04/22 07:19:11;;;;;;;10.57;5.83;;;;;;;14.73;60.51;100384.00;6074464;28;20041;-72
2023/04/22 07:22:07;;;;;;;11.57;5.93;;;;;;;15.18;59.40;100362.50;6075358;28;20779;-74
2023/04/22 07:25:03;;;;;;;10.57;5.40;;;;;;;15.56;58.07;100365.09;6084651;28;20037;-73
2023/04/22 07:27:58;;;;;;;9.25;5.13;;;;;;;15.53;57.62;100354.75;6082834;28;20053;-72
2023/04/22 07:30:53;;;;;;;10.10;5.47;;;;;;;15.46;57.83;100355.50;6087441;28;20033;-72
2023/04/22 07:33:49;;;;;;;10.27;6.37;;;;;;;15.43;57.58;100366.56;6074587;28;20461;-73
2023/04/22 07:36:44;;;;;;;10.90;5.00;;;;;;;15.46;58.62;100362.72;6077019;28;20044;-72
2023/04/22 07:39:39;;;;;;;10.47;5.57;;;;;;;15.73;57.61;100363.84;6053674;28;20056;-72
2023/04/22 07:42:37;;;;;;;11.73;6.40;;;;;;;15.87;57.69;100352.31;6072391;28;20256;-72
2023/04/22 07:45:33;;;;;;;10.93;5.70;;;;;;;16.18;55.20;100358.19;6073537;28;20044;-72
2023/04/22 07:48:28;;;;;;;11.47;5.23;;;;;;;16.31;55.76;100365.50;6091186;28;20037;-72
2023/04/22 07:51:24;;;;;;;9.30;5.03;;;;;;;16.26;55.26;100367.91;6074379;28;20482;-71
2023/04/22 07:54:20;;;;;;;14.65;5.93;;;;;;;16.37;54.30;100370.91;6072677;28;20055;-73
2023/04/22 07:57:15;;;;;;;11.05;5.20;;;;;;;16.55;54.23;100370.50;6074716;28;20026;-72
2023/04/22 08:00:11;;;;;;;10.27;5.07;;;;;;;16.48;55.00;100359.69;6079156;28;20083;-73
2023/04/22 08:03:06;;;;;;;10.35;5.22;;;;;;;16.35;55.42;100362.25;6077711;28;20029;-72
2023/04/22 08:06:01;;;;;;;9.03;4.70;;;;;;;16.77;54.77;100344.53;6074039;28;20454;-74
2023/04/22 08:08:57;;;;;;;11.10;5.03;;;;;;;17.00;54.26;100350.44;6076861;28;20454;-73
2023/04/22 08:11:53;;;;;;;9.40;5.00;;;;;;;16.87;54.72;100345.81;6079567;28;20669;-74
2023/04/22 08:14:48;;;;;;;11.05;4.97;;;;;;;17.02;54.03;100343.84;6075735;28;20025;-75
2023/04/22 08:17:43;;;;;;;8.30;5.38;;;;;;;17.34;52.64;100337.00;6072507;28;20025;-74
2023/04/22 08:20:39;;;;;;;7.47;4.47;;;;;;;17.05;53.82;100337.28;6089340;28;20028;-72
2023/04/22 08:23:34;;;;;;;9.20;5.17;;;;;;;17.28;53.50;100337.84;6079125;28;21764;-72
2023/04/22 08:26:30;;;;;;;12.33;6.27;;;;;;;17.52;53.36;100339.16;6073577;28;20287;-73
2023/04/22 08:29:25;;;;;;;12.48;4.10;;;;;;;17.62;53.13;100319.03;6074826;28;20033;-74
2023/04/22 08:32:21;;;;;;;8.53;5.80;;;;;;;17.68;52.42;100333.47;6071709;28;20048;-74
2023/04/22 08:35:16;;;;;;;8.25;4.80;;;;;;;17.85;53.57;100345.50;6073166;28;20068;-73
2023/04/22 08:38:11;;;;;;;11.93;5.13;;;;;;;17.96;52.16;100333.38;6060383;28;20029;-73
2023/04/22 08:41:07;;;;;;;10.10;4.80;;;;;;;18.16;52.15;100337.72;6073346;28;20093;-73
2023/04/22 08:44:03;;;;;;;8.40;4.80;;;;;;;18.19;51.96;100310.47;6072284;28;20463;-72
2023/04/22 08:46:59;;;;;;;9.52;5.07;;;;;;;18.41;50.99;100319.16;6075908;28;20033;-72
2023/04/22 08:49:55;;;;;;;12.13;5.35;;;;;;;18.60;50.74;100318.38;6093718;28;20087;-73
2023/04/22 08:52:50;;;;;;;10.43;5.13;;;;;;;18.88;49.81;100315.44;6073634;28;20544;-72
2023/04/22 08:55:46;;;;;;;12.03;4.83;;;;;;;19.23;49.84;100310.59;6076585;28;20095;-72
2023/04/22 08:58:41;;;;;;;9.32;4.95;;;;;;;18.94;49.36;100320.78;6063018;28;20021;-73
2023/04/22 09:01:40;;;;;;;9.95;4.70;;;;;;;19.21;50.37;100310.00;6072831;28;20613;-74
2023/04/22 09:04:36;;;;;;;8.40;4.18;;;;;;;19.39;49.02;100308.28;6053788;28;20041;-71
2023/04/22 09:07:31;;;;;;;9.27;4.93;;;;;;;18.94;49.48;100309.25;6074287;28;20044;-72
2023/04/22 09:10:27;;;;;;;9.50;4.75;;;;;;;19.08;49.62;100305.47;6072873;28;20275;-73
2023/04/22 09:13:23;;;;;;;7.78;4.82;;;;;;;19.09;49.59;100307.13;6081176;28;20518;-73
2023/04/22 09:16:18;;;;;;;11.32;5.68;;;;;;;18.94;50.67;100299.28;6074114;28;20061;-71
2023/04/22 09:19:14;;;;;;;14.43;5.33;;;;;;;18.83;51.04;100310.69;6083589;28;20033;-73
2023/04/22 09:22:14;;;;;;;10.38;4.93;;;;;;;18.64;51.15;100298.13;6074029;28;20522;-73
2023/04/22 09:25:21;;;;;;;10.15;4.53;;;;;;;19.41;50.84;100297.31;6070224;28;20040;-74
2023/04/22 09:28:17;;;;;;;12.07;4.78;;;;;;;19.64;50.02;100311.09;6068051;28;20025;-72
2023/04/22 09:31:13;;;;;;;10.98;4.68;;;;;;;19.51;49.04;100300.41;6073986;28;20044;-72
2023/04/22 09:34:08;;;;;;;10.52;4.75;;;;;;;19.46;48.61;100313.63;6071754;28;20042;-72
2023/04/22 09:37:04;;;;;;;9.87;4.40;;;;;;;19.65;48.49;100307.34;6072298;28;20030;-72
2023/04/22 09:39:59;;;;;;;6.80;3.88;;;;;;;20.10;47.55;100294.66;6070069;28;20033;-73
2023/04/22 09:42:57;;;;;;;8.23;4.03;;;;;;;20.09;47.95;100293.81;6053948;28;20108;-72
2023/04/22 09:45:59;;;;;;;12.10;4.63;;;;;;;20.63;48.06;100295.06;6074123;28;20665;-73
2023/04/22 09:48:56;;;;;;;6.75;3.47;;;;;;;20.57;46.31;100290.59;6070576;28;20398;-73
2023/04/22 09:51:58;;;;;;;10.50;4.60;;;;;;;20.66;47.92;100283.84;6073351;28;20040;-72
2023/04/22 09:54:53;;;;;;;9.93;4.45;;;;;;;20.64;46.14;100264.38;6070947;28;20025;-72
2023/04/22 09:57:54;;;;;;;7.25;3.63;;;;;;;21.04;45.87;100287.19;6072652;28;20021;-73
2023/04/22 10:00:55;;;;;;;11.57;4.22;;;;;;;21.55;46.55;100272.50;6073613;28;20037;-74
2023/04/22 10:03:51;;;;;;;7.95;4.43;;;;;;;21.38;45.11;100274.16;6072645;28;20487;-74
2023/04/22 10:06:47;;;;;;;10.43;4.90;;;;;;;21.71;45.89;100264.59;6070089;28;20048;-75
2023/04/22 10:09:42;;;;;;;9.52;4.43;;;;;;;21.88;44.78;100256.66;6069543;28;20034;-74
2023/04/22 10:12:38;;;;;;;9.83;4.47;;;;;;;21.85;44.23;100232.81;6055396;28;20033;-73
2023/04/22 10:15:52;;;;;;;6.53;3.80;;;;;;;21.72;43.51;100247.31;6084025;28;20079;-73
2023/04/22 10:18:49;;;;;;;9.70;3.40;;;;;;;21.92;43.68;100244.34;6089076;28;20328;-74
2023/04/22 10:21:46;;;;;;;6.72;3.42;;;;;;;21.52;43.53;100229.78;6056072;28;20033;-73
2023/04/22 10:24:42;;;;;;;6.03;3.47;;;;;;;22.16;43.04;100237.94;6091020;28;20082;-75
2023/04/22 10:27:38;;;;;;;5.95;3.20;;;;;;;21.74;42.63;100222.81;6070595;28;20048;-73
2023/04/22 10:30:36;;;;;;;7.47;3.60;;;;;;;21.99;42.45;100217.25;6070427;28;20390;-75
2023/04/22 10:33:33;;;;;;;4.80;3.28;;;;;;;22.07;42.27;100233.91;6074137;28;20038;-73
2023/04/22 10:36:31;;;;;;;9.32;3.92;;;;;;;21.89;42.22;100217.81;6077387;28;20418;-76
2023/04/22 10:39:27;;;;;;;7.45;4.05;;;;;;;22.42;42.51;100226.66;6061742;28;20034;-74
2023/04/22 10:42:27;;;;;;;10.48;3.83;;;;;;;21.87;43.98;100219.94;6071057;28;20486;-74
2023/04/22 10:45:24;;;;;;;8.85;3.95;;;;;;;21.98;43.69;100223.72;6072086;28;20068;-73
2023/04/22 10:48:49;;;;;;;6.93;4.00;;;;;;;21.72;44.52;100220.31;6075869;28;20033;-74
2023/04/22 10:51:45;;;;;;;7.80;3.47;;;;;;;21.80;45.69;100209.19;6075058;28;20045;-74
2023/04/22 10:54:43;;;;;;;7.97;3.53;;;;;;;22.28;44.18;100219.06;6070391;28;20103;-74
2023/04/22 10:57:41;;;;;;;6.53;3.72;;;;;;;22.69;44.03;100215.44;6070333;28;20717;-74
2023/04/22 11:00:40;;;;;;;5.90;3.88;;;;;;;22.58;43.65;100197.31;6069995;28;20025;-74
2023/04/22 11:03:36;;;;;;;7.43;4.07;;;;;;;22.53;44.15;100209.63;6081566;28;20057;-73
2023/04/22 11:06:31;;;;;;;5.00;3.40;;;;;;;22.33;44.68;100211.88;6075193;28;20103;-75
2023/04/22 11:09:26;;;;;;;6.53;3.53;;;;;;;22.44;44.93;100202.13;6090871;28;20029;-73
2023/04/22 11:12:34;;;;;;;10.98;4.35;;;;;;;22.13;45.55;100205.16;6075084;28;20386;-74
2023/04/22 11:15:30;;;;;;;8.60;3.90;;;;;;;22.45;45.17;100188.38;6071851;28;20037;-73
2023/04/22 11:18:26;;;;;;;9.00;4.30;;;;;;;22.61;44.64;100196.84;6075932;28;20048;-74
2023/04/22 11:21:21;;;;;;;7.95;4.63;;;;;;;22.32;45.08;100166.16;6073339;28;20038;-72
2023/04/22 11:24:17;;;;;;;7.03;4.50;;;;;;;22.39;45.31;100173.09;6072645;28;20036;-73
2023/04/22 11:27:12;;;;;;;7.50;5.07;;;;;;;22.62;45.10;100171.41;6073420;28;20490;-73
2023/04/22 11:30:13;;;;;;;9.33;5.30;;;;;;;22.81;44.84;100171.06;6074054;28;20056;-74
2023/04/22 11:33:08;;;;;;;10.85;6.55;;;;;;;22.64;45.54;100169.34;6073168;28;20511;-74
2023/04/22 11:36:04;;;;;;;7.20;4.50;;;;;;;23.16;43.60;100167.41;6056058;28;20041;-74
2023/04/22 11:38:59;;;;;;;5.97;3.83;;;;;;;22.77;44.18;100158.28;6057040;28;20021;-74
2023/04/22 11:41:55;;;;;;;6.10;3.63;;;;;;;23.22;42.69;100163.75;6074177;28;20046;-74
2023/04/22 11:44:50;;;;;;;8.43;3.22;;;;;;;22.92;43.94;100155.88;6074586;28;20082;-74
2023/04/22 11:47:49;;;;;;;7.07;4.00;;;;;;;23.29;43.17;100151.72;6077810;28;20044;-75
2023/04/22 11:50:46;;;;;;;6.25;3.60;;;;;;;23.50;42.34;100159.19;6085791;28;20075;-73
2023/04/22 11:53:49;;;;;;;5.25;3.10;;;;;;;23.73;42.35;100162.84;6083902;28;20033;-75
2023/04/22 11:56:47;;;;;;;7.32;3.30;;;;;;;24.03;42.38;100149.75;6076423;28;20061;-73
2023/04/22 11:59:43;;;;;;;11.68;3.83;;;;;;;23.87;41.38;100137.03;6058677;28;20037;-75
2023/04/22 12:02:40;;;;;;;8.35;3.55;;;;;;;24.22;41.45;100135.72;6073022;28;20087;-76
2023/04/22 12:05:46;;;;;;;8.18;3.17;;;;;;;24.27;40.68;100121.41;6073521;28;20037;-74
2023/04/22 12:08:43;;;;;;;5.45;2.50;;;;;;;24.04;36.12;100110.75;6070524;28;20032;-74
2023/04/22 12:11:38;;;;;;;4.45;2.15;;;;;;;24.18;37.55;100129.19;6073583;28;20072;-76
2023/04/22 12:14:34;;;;;;;6.30;1.83;;;;;;;24.69;35.08;100121.72;6073267;28;20037;-75
2023/04/22 12:17:30;;;;;;;4.40;2.00;;;;;;;24.71;34.29;100114.13;6072675;28;20029;-74
2023/04/22 12:20:31;;;;;;;3.45;1.63;;;;;;;24.76;34.33;100115.00;6057500;28;20045;-73
2023/04/22 12:23:27;;;;;;;3.58;1.35;;;;;;;24.65;33.38;100102.41;6072217;28;20036;-73
2023/04/22 12:26:23;;;;;;;7.75;1.52;;;;;;;24.96;32.73;100114.47;6073347;28;20060;-76
2023/04/22 12:29:32;;;;;;;5.90;1.60;;;;;;;24.90;33.48;100120.06;6072527;28;20029;-73
2023/04/22 12:32:27;;;;;;;4.68;1.60;;;;;;;24.45;33.46;100118.44;6074437;28;20045;-75
2023/04/22 12:35:23;;;;;;;4.17;1.50;;;;;;;24.37;33.42;100102.59;6071746;28;20517;-74
2023/04/22 12:38:18;;;;;;;3.00;1.60;;;;;;;24.39;32.30;100095.03;6073098;28;20341;-72
2023/04/22 12:41:14;;;;;;;2.85;1.60;;;;;;;23.93;33.29;100103.56;6072686;28;20061;-73
2023/04/22 12:44:10;;;;;;;4.03;1.70;;;;;;;24.20;34.14;100099.09;6054228;28;20037;-73
2023/04/22 12:47:05;;;;;;;2.70;1.60;;;;;;;24.13;33.64;100109.31;6072514;28;20029;-74
2023/04/22 12:50:05;;;;;;;3.40;1.70;;;;;;;24.00;33.77;100087.94;6071683;28;20276;-74
2023/04/22 12:53:00;;;;;;;;;;;;;;;23.76;34.79;100091.91;6073639;28;20673;-75
2023/04/22 12:55:55;;;;;;;2.70;1.63;;;;;;;23.68;34.59;100102.09;6093564;28;19920;-75
2023/04/22 12:58:50;;;;;;;4.38;2.00;;;;;;;23.65;34.73;100089.03;6071886;28;20061;-74
2023/04/22 13:01:46;;;;;;;3.97;1.93;;;;;;;23.03;35.97;100087.38;6072679;28;20091;-76
2023/04/22 13:04:41;;;;;;;9.10;3.00;;;;;;;23.31;36.62;100095.47;6070690;28;20785;-74
2023/04/22 13:07:37;;;;;;;8.80;2.10;;;;;;;23.59;35.49;100100.06;6090836;28;20349;-75
2023/04/22 13:10:32;;;;;;;2.30;1.70;;;;;;;23.83;35.81;100081.72;6072003;28;20419;-76
2023/04/22 13:13:28;;;;;;;2.83;1.53;;;;;;;23.65;35.89;100077.38;6075065;28;20073;-75
2023/04/22 13:16:23;;;;;;;3.97;2.00;;;;;;;23.42;35.27;100085.69;6071792;28;20275;-74
2023/04/22 13:19:18;;;;;;;4.90;2.03;;;;;;;23.62;35.82;100081.41;6071631;28;20041;-74
2023/04/22 13:22:14;;;;;;;4.73;1.90;;;;;;;23.76;35.34;100072.94;6071316;28;20379;-76
2023/04/22 13:25:09;;;;;;;3.77;2.00;;;;;;;24.13;34.33;100082.22;6071141;28;20270;-75
2023/04/22 13:28:04;;;;;;;4.72;1.70;;;;;;;23.74;35.29;100084.03;6071195;28;20042;-74
2023/04/22 13:31:00;;;;;;;3.50;1.77;;;;;;;23.51;34.66;100076.91;6071994;28;20029;-74
2023/04/22 13:33:55;;;;;;;3.67;1.80;;;;;;;23.30;34.42;100076.75;6070871;28;20252;-74